Ana Sayfa
METAR-TAF:

METAR-TAF

Havaalanları :

Las Cruces International Airport

Las Cruces, New Mexico, Amerika Birleşik Devletleri

Enlem: 32-17-22N, Boylam: 106-55-19W, yükseklik: 1358 m

Güncel hava durumu gözlemi

Rapor saat 13:15 UTC de 27 dakika önce yapıldı.
Rüzgar kuzey/kuzeybatıdan 4 kt
Sıcaklık 19°C
Nem 22%
Basınç 1016 hPa
Görüş mesafesi: 16.1 km
Açık gökyüzü

METAR: KLRU 221315Z AUTO 33004KT 10SM CLR 19/M03 A3001 RMK AO2 T01881031

Saat: 07:42 (13:42 UTC)

Tahmin

Rapor saat 11:20 UTC de 2 saat ve 22 dakika önce yapıldı.
Ayın 22'si saat 12 UTC'den ayın 23'si saat 12 UTC'ye kadar geçerli Tahmin
Rüzgar kuzeybatıdan 6 kt
Görüş mesafesi: 10 km
Açık gökyüzü
Ayın 22'si saat 1800 UTC'den
Rüzgar batı/güneybatıdan 14 kt ve 22 kt'a kadar ani rüzgarlar
Görüş mesafesi: 10 km
Açık gökyüzü
Ayın 23'si saat 0300 UTC'den
Rüzgar batıdan 8 kt
Görüş mesafesi: 10 km
Açık gökyüzü

TAF: KLRU 221120Z 2212/2312 32006KT P6SM SKC FM221800 24014G22KT P6SM SKC FM230300 27008KT P6SM SKC

4.000'den fazla havaalanı için hava durumu gözlemleri ve tahminleri (METAR ve TAF raporları).

Kullanılabilir istasyonlar harita üzerinde sarı ve kırmızı noktalarla gösterilir.

İstasyonun adını görmek için fareyi noktanın üzerinde gezdirin.

Sonrasında hava gözlem ve tahminlerini görmek için tıklayın.

Haritayı değiştirmek için: yaklaştırmak için siyah artı işaretli yeşil düğmeye ve uzaklaştırmak için de eksi işaretli düğmeye hızla tıklayın; bitişik haritalar için yeşil okları kullanın.


METAR-TAF: